createdAt,value
2022-08-07T00:00:25.754Z,71.00
2022-08-07T00:02:53.768Z,71.30
2022-08-07T00:05:23.631Z,71.20
2022-08-07T00:07:59.717Z,71.40
2022-08-07T00:10:29.803Z,71.50
2022-08-07T00:13:02.148Z,71.60
2022-08-07T00:15:38.343Z,71.90
2022-08-07T00:18:24.160Z,72.10
2022-08-07T00:20:53.557Z,72.10
2022-08-07T00:23:21.719Z,72.30
2022-08-07T00:25:58.879Z,72.40
2022-08-07T00:28:34.035Z,72.70
2022-08-07T00:31:12.719Z,72.90
2022-08-07T00:33:47.414Z,73.10
2022-08-07T00:36:15.152Z,73.10
2022-08-07T00:38:44.271Z,73.00
2022-08-07T00:41:14.860Z,73.30
2022-08-07T00:44:01.747Z,73.10
2022-08-07T00:46:30.911Z,73.40
2022-08-07T00:49:03.067Z,73.70
2022-08-07T00:51:58.150Z,73.80
2022-08-07T00:54:19.675Z,73.90
2022-08-07T00:56:49.713Z,74.10
2022-08-07T00:59:35.053Z,74.30
2022-08-07T01:02:08.931Z,74.30
2022-08-07T01:04:43.303Z,74.60
2022-08-07T01:07:12.657Z,75.00
2022-08-07T01:10:04.492Z,75.00
2022-08-07T01:12:30.761Z,75.00
2022-08-07T01:15:01.023Z,75.00
2022-08-07T01:17:30.984Z,75.00
2022-08-07T01:20:08.044Z,75.40
2022-08-07T01:22:46.640Z,75.50
2022-08-07T01:25:53.778Z,75.60
2022-08-07T01:28:01.851Z,75.80
2022-08-07T01:30:31.335Z,75.80
2022-08-07T01:32:58.923Z,75.90
2022-08-07T01:35:26.323Z,76.30
2022-08-07T01:38:13.596Z,76.50
2022-08-07T01:40:55.120Z,76.50
2022-08-07T01:43:25.853Z,76.70
2022-08-07T01:45:54.917Z,76.90
2022-08-07T01:48:30.332Z,77.00
2022-08-07T01:51:24.683Z,77.10
2022-08-07T01:54:12.119Z,77.50
2022-08-07T01:57:02.519Z,77.60
2022-08-07T01:59:36.381Z,77.60
2022-08-07T02:02:10.534Z,77.60
2022-08-07T02:04:52.391Z,77.70
2022-08-07T02:07:44.840Z,77.80
2022-08-07T02:10:16.484Z,78.00
2022-08-07T02:12:50.054Z,78.10
2022-08-07T02:15:22.514Z,78.00
2022-08-07T02:17:51.780Z,78.20
2022-08-07T02:20:23.731Z,78.60
2022-08-07T02:22:59.701Z,79.40
2022-08-07T02:26:10.547Z,79.60
2022-08-07T02:28:25.431Z,79.30
2022-08-07T02:30:56.598Z,80.00
2022-08-07T02:33:41.900Z,80.30
2022-08-07T02:36:29.879Z,80.80
2022-08-07T02:39:16.265Z,81.30
2022-08-07T02:41:47.295Z,81.80
2022-08-07T02:44:20.158Z,82.10
2022-08-07T02:46:52.688Z,82.80
2022-08-07T02:49:20.756Z,83.10
2022-08-07T02:52:14.651Z,83.40
2022-08-07T02:54:42.908Z,83.80
2022-08-07T02:57:14.314Z,84.10
2022-08-07T02:59:55.193Z,84.30
2022-08-07T03:02:28.682Z,84.70
2022-08-07T03:04:58.853Z,84.80
2022-08-07T03:08:05.043Z,85.00
2022-08-07T03:10:14.815Z,85.30
2022-08-07T03:12:42.403Z,85.80
2022-08-07T03:15:12.106Z,85.80
2022-08-07T03:17:53.999Z,85.70
2022-08-07T03:20:22.358Z,86.20
2022-08-07T03:22:52.627Z,86.30
2022-08-07T03:25:21.358Z,86.60
2022-08-07T03:28:09.086Z,86.80
2022-08-07T03:30:38.565Z,87.00
2022-08-07T03:33:08.025Z,87.30
2022-08-07T03:35:44.257Z,87.30
2022-08-07T03:38:20.895Z,87.40
2022-08-07T03:40:53.846Z,87.60
2022-08-07T03:43:26.657Z,87.80
2022-08-07T03:46:00.137Z,88.10
2022-08-07T03:48:32.046Z,88.30
2022-08-07T03:51:00.771Z,88.50
2022-08-07T03:54:00.526Z,88.70
2022-08-07T03:56:32.835Z,89.00
2022-08-07T03:59:08.953Z,90.00
2022-08-07T04:01:45.441Z,89.80
2022-08-07T04:04:17.461Z,90.00
2022-08-07T04:06:45.420Z,90.00
2022-08-07T04:09:15.255Z,90.00
2022-08-07T04:12:25.368Z,90.00
2022-08-07T04:14:38.542Z,90.00
2022-08-07T04:17:19.803Z,90.00
2022-08-07T04:19:52.846Z,90.00
2022-08-07T04:22:29.109Z,90.00
2022-08-07T04:25:01.068Z,90.10
2022-08-07T04:27:28.951Z,90.20
2022-08-07T04:30:04.673Z,90.20
2022-08-07T04:32:35.224Z,90.30
2022-08-07T04:35:05.705Z,90.30
2022-08-07T04:37:52.861Z,90.40
2022-08-07T04:40:30.208Z,90.70
2022-08-07T04:43:01.752Z,90.70
2022-08-07T04:46:00.395Z,90.70
2022-08-07T04:48:53.009Z,90.70
2022-08-07T04:51:49.703Z,90.50
2022-08-07T04:54:50.895Z,90.50
2022-08-07T04:58:11.333Z,90.40
2022-08-07T05:00:31.019Z,90.40
2022-08-07T05:03:17.051Z,90.40
2022-08-07T05:06:16.364Z,90.40
2022-08-07T05:09:08.067Z,90.40
2022-08-07T05:11:57.075Z,90.30
2022-08-07T05:14:52.664Z,90.20
2022-08-07T05:17:52.068Z,90.00
2022-08-07T05:20:11.845Z,89.80
2022-08-07T05:22:42.244Z,89.80
2022-08-07T05:25:25.834Z,89.70
2022-08-07T05:28:02.793Z,89.50
2022-08-07T05:30:47.136Z,88.30
2022-08-07T05:33:18.222Z,87.00
2022-08-07T05:35:50.067Z,87.10
2022-08-07T05:38:59.634Z,82.10
2022-08-07T05:41:12.344Z,72.10
2022-08-07T05:44:08.711Z,64.10
2022-08-07T05:46:32.157Z,57.10
2022-08-07T05:49:00.497Z,52.50
2022-08-07T05:51:40.069Z,50.00
2022-08-07T05:54:09.344Z,46.40
2022-08-07T05:56:57.017Z,46.70
2022-08-07T05:59:27.397Z,44.60
2022-08-07T06:01:57.341Z,43.80
2022-08-07T06:04:29.774Z,43.00
2022-08-07T06:07:03.947Z,42.70
2022-08-07T06:10:04.622Z,42.80
2022-08-07T06:12:20.840Z,43.70
2022-08-07T06:14:49.457Z,43.30
2022-08-07T06:17:22.451Z,43.00
2022-08-07T06:20:04.165Z,41.40
2022-08-07T06:22:38.865Z,41.30
2022-08-07T06:25:10.088Z,41.60
2022-08-07T06:27:59.798Z,42.60
2022-08-07T06:30:36.146Z,41.60
2022-08-07T06:33:09.816Z,40.80
2022-08-07T06:35:47.691Z,40.90
2022-08-07T06:38:20.086Z,41.30
2022-08-07T06:40:53.477Z,41.20
2022-08-07T06:43:25.127Z,40.20
2022-08-07T06:45:58.566Z,39.60
2022-08-07T06:48:28.218Z,40.40
2022-08-07T06:51:00.226Z,39.70
2022-08-07T06:55:30.084Z,40.40
2022-08-07T06:56:48.493Z,40.70
2022-08-07T07:00:14.046Z,39.80
2022-08-07T07:02:48.551Z,38.30
2022-08-07T07:05:12.761Z,39.50
2022-08-07T07:07:59.046Z,39.90
2022-08-07T07:10:30.221Z,38.50
2022-08-07T07:13:57.523Z,39.70
2022-08-07T07:16:19.764Z,40.60
2022-08-07T07:18:56.651Z,40.30
2022-08-07T07:21:40.448Z,39.80
2022-08-07T07:24:17.309Z,41.50
2022-08-07T07:26:52.080Z,42.30
2022-08-07T07:29:56.280Z,42.50
2022-08-07T07:32:14.504Z,42.20
2022-08-07T07:34:48.599Z,43.50
2022-08-07T07:37:44.447Z,43.60
2022-08-07T07:40:10.257Z,42.80
2022-08-07T07:42:53.789Z,41.80
2022-08-07T07:46:38.175Z,43.10
2022-08-07T07:48:35.812Z,42.60
2022-08-07T07:51:08.810Z,43.60
2022-08-07T07:53:51.368Z,44.30
2022-08-07T07:56:30.573Z,44.10
2022-08-07T07:59:01.692Z,44.90
2022-08-07T08:02:03.891Z,46.00
2022-08-07T08:04:25.454Z,46.70
2022-08-07T08:07:00.650Z,46.90
2022-08-07T08:09:31.016Z,47.70
2022-08-07T08:12:42.932Z,46.90
2022-08-07T08:15:07.013Z,47.50
2022-08-07T08:17:57.460Z,47.60
2022-08-07T08:20:31.606Z,48.00
2022-08-07T08:23:20.543Z,49.00
2022-08-07T08:26:08.560Z,47.80
2022-08-07T08:28:45.140Z,46.90
2022-08-07T08:31:22.813Z,47.40
2022-08-07T08:34:06.368Z,47.60
2022-08-07T08:36:37.173Z,48.50
2022-08-07T08:39:09.069Z,48.00
2022-08-07T08:41:56.809Z,46.90
2022-08-07T08:44:54.663Z,46.00
2022-08-07T08:48:18.553Z,45.10
2022-08-07T08:51:14.774Z,44.80
2022-08-07T08:54:11.243Z,45.70
2022-08-07T08:56:47.252Z,45.90
2022-08-07T08:59:25.649Z,46.10
2022-08-07T09:02:34.604Z,46.20
2022-08-07T09:05:37.009Z,45.10
2022-08-07T09:08:24.227Z,44.80
2022-08-07T09:11:24.721Z,45.80
2022-08-07T09:14:40.413Z,45.90
2022-08-07T09:17:59.776Z,46.40
2022-08-07T09:20:58.116Z,46.50
2022-08-07T09:24:32.048Z,46.40
2022-08-07T09:26:21.848Z,44.60
2022-08-07T09:30:06.491Z,44.60
2022-08-07T09:31:49.126Z,45.10
2022-08-07T09:34:43.817Z,46.10
2022-08-07T09:37:47.904Z,45.90
2022-08-07T09:40:32.493Z,45.00
2022-08-07T09:44:03.384Z,45.40
2022-08-07T09:47:52.191Z,46.20
2022-08-07T09:50:19.315Z,44.60
2022-08-07T09:52:52.273Z,44.70
2022-08-07T09:56:03.555Z,44.40
2022-08-07T09:58:51.113Z,43.50
2022-08-07T10:01:54.378Z,43.00
2022-08-07T10:04:28.303Z,43.80
2022-08-07T10:07:25.562Z,44.40
2022-08-07T10:10:00.195Z,44.70
2022-08-07T10:12:39.767Z,42.60
2022-08-07T10:15:18.964Z,43.30
2022-08-07T10:18:11.921Z,43.00
2022-08-07T10:22:12.388Z,43.00
2022-08-07T10:24:40.701Z,41.70
2022-08-07T10:27:51.252Z,43.20
2022-08-07T10:30:27.586Z,44.80
2022-08-07T10:33:14.825Z,44.30
2022-08-07T10:36:11.265Z,42.60
2022-08-07T10:38:49.854Z,43.20
2022-08-07T10:41:46.544Z,41.40
2022-08-07T10:44:39.373Z,40.90
2022-08-07T10:47:27.183Z,42.10
2022-08-07T10:50:12.083Z,41.30
2022-08-07T10:53:28.518Z,41.50
2022-08-07T10:56:44.177Z,42.80
2022-08-07T10:59:51.624Z,42.40
2022-08-07T11:02:41.136Z,42.10
2022-08-07T11:05:52.584Z,41.50
2022-08-07T11:08:35.099Z,40.30
2022-08-07T11:11:24.916Z,40.00
2022-08-07T11:14:45.667Z,40.70
2022-08-07T11:16:54.802Z,41.10
2022-08-07T11:19:46.471Z,40.80
2022-08-07T11:22:44.145Z,42.00
2022-08-07T11:25:42.555Z,41.50
2022-08-07T11:28:24.614Z,41.00
2022-08-07T11:30:55.939Z,41.10
2022-08-07T11:33:54.066Z,40.50
2022-08-07T11:36:31.319Z,41.40
2022-08-07T11:39:09.534Z,40.60
2022-08-07T11:42:02.859Z,41.40
2022-08-07T11:44:52.556Z,41.00
2022-08-07T11:47:56.678Z,41.90
2022-08-07T11:51:00.479Z,42.80
2022-08-07T11:53:35.231Z,41.70
2022-08-07T11:56:28.328Z,40.70
2022-08-07T12:00:08.306Z,40.20
2022-08-07T12:02:20.700Z,40.90
2022-08-07T12:05:47.629Z,40.40
2022-08-07T12:08:25.498Z,39.60
2022-08-07T12:11:32.375Z,40.30
2022-08-07T12:14:10.421Z,39.10
2022-08-07T12:17:03.021Z,39.40
2022-08-07T12:20:03.458Z,38.80
2022-08-07T12:24:05.052Z,38.80
2022-08-07T12:26:40.555Z,38.70
2022-08-07T12:29:20.478Z,39.10
2022-08-07T12:32:30.134Z,39.10
2022-08-07T12:35:00.850Z,39.50
2022-08-07T12:38:09.435Z,38.80
2022-08-07T12:40:43.895Z,37.50
2022-08-07T12:43:10.420Z,37.80
2022-08-07T12:45:52.290Z,37.90
2022-08-07T12:48:52.823Z,37.80
2022-08-07T12:51:46.907Z,37.70
2022-08-07T12:54:36.962Z,38.00
2022-08-07T12:57:09.587Z,36.80
2022-08-07T12:59:54.688Z,36.40
2022-08-07T13:03:06.970Z,38.80
2022-08-07T13:06:03.858Z,38.80
2022-08-07T13:10:19.956Z,39.20
2022-08-07T13:12:15.388Z,40.60
2022-08-07T13:14:58.484Z,40.80
2022-08-07T13:17:49.731Z,40.00
2022-08-07T13:20:36.722Z,38.70
2022-08-07T13:24:01.058Z,38.40
2022-08-07T13:26:31.652Z,39.10
2022-08-07T13:29:23.865Z,38.30
2022-08-07T13:32:15.267Z,38.80
2022-08-07T13:35:08.899Z,38.00
2022-08-07T13:38:00.817Z,37.10
2022-08-07T13:40:35.013Z,38.30
2022-08-07T13:43:13.031Z,37.40
2022-08-07T13:46:20.839Z,38.30
2022-08-07T13:48:35.029Z,38.90
2022-08-07T13:51:27.014Z,37.80
2022-08-07T13:54:02.042Z,38.10
2022-08-07T13:56:36.038Z,38.00
2022-08-07T13:59:19.957Z,39.80
2022-08-07T14:02:10.226Z,39.60
2022-08-07T14:04:54.700Z,39.20
2022-08-07T14:07:26.767Z,38.20
2022-08-07T14:10:21.899Z,39.10
2022-08-07T14:12:57.588Z,39.00
2022-08-07T14:15:43.930Z,39.10
2022-08-07T14:18:30.483Z,39.20
2022-08-07T14:22:01.876Z,39.20
2022-08-07T14:24:52.918Z,38.90
2022-08-07T14:28:11.844Z,38.90
2022-08-07T14:30:34.121Z,38.80
2022-08-07T14:33:04.631Z,39.80
2022-08-07T14:35:45.212Z,38.70
2022-08-07T14:38:30.451Z,38.90
2022-08-07T14:41:33.626Z,39.10
2022-08-07T14:44:17.968Z,40.20
2022-08-07T14:46:51.562Z,38.60
2022-08-07T14:49:57.080Z,38.60
2022-08-07T14:52:11.920Z,38.60
2022-08-07T14:54:48.975Z,39.20
2022-08-07T14:57:25.242Z,39.10
2022-08-07T15:03:18.760Z,39.20
2022-08-07T15:05:55.054Z,39.30
2022-08-07T15:14:17.364Z,39.30
2022-08-07T15:16:54.735Z,40.30
2022-08-07T15:20:30.363Z,40.50
2022-08-07T15:22:29.558Z,40.10
2022-08-07T15:25:18.275Z,40.70
2022-08-07T15:28:31.011Z,40.30
2022-08-07T15:36:57.459Z,41.00
2022-08-07T15:39:05.870Z,40.30
2022-08-07T15:42:43.525Z,41.20
2022-08-07T15:44:52.568Z,41.40
2022-08-07T15:48:02.390Z,41.70
2022-08-07T15:50:37.478Z,41.50
2022-08-07T15:53:14.453Z,41.30
2022-08-07T15:56:02.314Z,41.10
2022-08-07T15:58:52.154Z,41.30
2022-08-07T16:01:39.083Z,41.20
2022-08-07T16:04:14.903Z,41.60
2022-08-07T16:06:54.584Z,42.20
2022-08-07T16:09:41.092Z,42.20
2022-08-07T16:13:05.833Z,41.50
2022-08-07T16:15:58.962Z,41.80
2022-08-07T16:18:49.314Z,42.40
2022-08-07T16:22:07.279Z,41.80
2022-08-07T16:24:57.392Z,41.90
2022-08-07T16:27:40.265Z,42.10
2022-08-07T16:30:31.824Z,42.20
2022-08-07T16:34:03.182Z,42.00
2022-08-07T16:36:19.691Z,42.10
2022-08-07T16:39:21.079Z,41.90
2022-08-07T16:42:25.705Z,42.00
2022-08-07T16:46:47.319Z,43.10
2022-08-07T16:48:53.800Z,42.20
2022-08-07T16:52:50.071Z,42.10
2022-08-07T16:55:08.180Z,41.40
2022-08-07T16:58:16.451Z,42.00
2022-08-07T17:01:01.861Z,42.00
2022-08-07T17:03:59.443Z,42.50
2022-08-07T17:07:02.895Z,42.40
2022-08-07T17:10:32.183Z,41.90
2022-08-07T17:13:41.887Z,42.60
2022-08-07T17:16:58.943Z,42.60
2022-08-07T17:20:03.539Z,42.80
2022-08-07T17:22:42.518Z,42.70
2022-08-07T17:25:47.854Z,41.60
2022-08-07T17:28:31.240Z,41.60
2022-08-07T17:31:18.239Z,41.50
2022-08-07T17:34:17.914Z,41.90
2022-08-07T17:36:59.984Z,40.80
2022-08-07T17:40:07.804Z,41.10
2022-08-07T17:43:00.266Z,41.70
2022-08-07T17:45:35.023Z,41.80
2022-08-07T17:48:10.356Z,41.80
2022-08-07T17:51:04.492Z,42.10
2022-08-07T17:54:01.583Z,42.30
2022-08-07T17:56:49.922Z,42.00
2022-08-07T18:00:05.995Z,42.70
2022-08-07T18:02:56.520Z,42.50
2022-08-07T18:06:03.102Z,42.40
2022-08-07T18:09:01.474Z,42.70
2022-08-07T18:12:06.635Z,43.00
2022-08-07T18:14:46.429Z,43.10
2022-08-07T18:18:39.634Z,43.70
2022-08-07T18:21:10.091Z,43.80
2022-08-07T18:23:57.464Z,44.10
2022-08-07T18:26:41.063Z,44.40
2022-08-07T18:30:06.279Z,44.70
2022-08-07T18:32:16.753Z,45.00
2022-08-07T18:35:05.577Z,45.30
2022-08-07T18:38:55.284Z,45.90
2022-08-07T18:41:20.624Z,46.50
2022-08-07T18:44:03.297Z,47.50
2022-08-07T18:47:02.816Z,47.80
2022-08-07T18:50:30.075Z,47.70
2022-08-07T18:53:04.519Z,47.80
2022-08-07T18:55:56.086Z,48.30
2022-08-07T18:58:52.998Z,49.40
2022-08-07T19:02:18.921Z,49.40
2022-08-07T19:04:56.256Z,50.20
2022-08-07T19:07:36.626Z,50.90
2022-08-07T19:10:23.547Z,51.20
2022-08-07T19:13:21.778Z,51.40
2022-08-07T19:17:01.178Z,52.40
2022-08-07T19:19:27.923Z,52.00
2022-08-07T19:22:07.637Z,52.50
2022-08-07T19:24:47.949Z,53.20
2022-08-07T19:28:29.764Z,54.40
2022-08-07T19:31:06.373Z,55.80
2022-08-07T19:33:12.878Z,55.50
2022-08-07T19:35:42.885Z,55.20
2022-08-07T19:38:17.726Z,56.00
2022-08-07T19:40:50.394Z,55.70
2022-08-07T19:43:43.769Z,56.90
2022-08-07T19:46:12.416Z,55.80
2022-08-07T19:48:53.749Z,56.50
2022-08-07T19:51:50.755Z,56.80
2022-08-07T19:54:29.722Z,57.40
2022-08-07T19:57:51.782Z,57.70
2022-08-07T19:59:57.377Z,57.90
2022-08-07T20:02:53.513Z,58.30
2022-08-07T20:05:28.143Z,58.50
2022-08-07T20:08:01.003Z,58.80
2022-08-07T20:10:55.237Z,59.50
2022-08-07T20:13:47.453Z,59.10
2022-08-07T20:16:34.840Z,59.60
2022-08-07T20:19:06.174Z,59.90
2022-08-07T20:21:47.275Z,60.30
2022-08-07T20:24:28.792Z,61.10
2022-08-07T20:27:02.468Z,61.40
2022-08-07T20:29:49.573Z,62.70
2022-08-07T20:32:39.694Z,60.50
2022-08-07T20:35:26.399Z,60.80
2022-08-07T20:37:59.638Z,61.10
2022-08-07T20:40:33.002Z,61.60
2022-08-07T20:43:02.945Z,61.90
2022-08-07T20:46:27.495Z,62.20
2022-08-07T20:48:28.760Z,62.10
2022-08-07T20:51:00.214Z,62.70
2022-08-07T20:54:03.021Z,63.40
2022-08-07T20:56:26.068Z,63.90
2022-08-07T20:58:56.791Z,64.30
2022-08-07T21:01:29.797Z,66.30
2022-08-07T21:04:22.799Z,65.10
2022-08-07T21:06:55.153Z,64.60
2022-08-07T21:09:35.369Z,65.50
2022-08-07T21:12:28.646Z,65.10
2022-08-07T21:14:58.687Z,65.60
2022-08-07T21:18:09.611Z,65.90
2022-08-07T21:20:30.255Z,64.90
2022-08-07T21:23:08.198Z,65.50
2022-08-07T21:26:01.415Z,65.10
2022-08-07T21:28:48.982Z,64.80
2022-08-07T21:32:42.405Z,66.00
2022-08-07T21:34:32.609Z,67.10
2022-08-07T21:37:31.490Z,66.70
2022-08-07T21:40:26.136Z,66.80
2022-08-07T21:43:23.220Z,68.50
2022-08-07T21:46:10.179Z,69.10
2022-08-07T21:49:02.236Z,69.50
2022-08-07T21:51:56.552Z,69.10
2022-08-07T21:54:39.296Z,68.80
2022-08-07T21:57:55.218Z,69.10
2022-08-07T22:00:25.687Z,69.90
2022-08-07T22:03:31.877Z,70.10
2022-08-07T22:06:07.957Z,70.40
2022-08-07T22:08:57.146Z,70.50
2022-08-07T22:11:30.733Z,72.30
2022-08-07T22:14:15.383Z,71.50
2022-08-07T22:17:03.899Z,71.50
2022-08-07T22:19:57.178Z,71.80
2022-08-07T22:22:36.683Z,72.00
2022-08-07T22:25:12.921Z,72.10
2022-08-07T22:28:29.315Z,72.30
2022-08-07T22:31:45.466Z,73.10
2022-08-07T22:34:19.937Z,72.70
2022-08-07T22:38:03.716Z,73.00
2022-08-07T22:40:47.674Z,73.80
2022-08-07T22:43:23.490Z,73.10
2022-08-07T22:47:03.880Z,73.50
2022-08-07T22:49:33.630Z,74.40
2022-08-07T22:52:37.623Z,75.50
2022-08-07T22:55:44.572Z,75.50
2022-08-07T22:58:33.440Z,74.90
2022-08-07T23:01:18.303Z,74.50
2022-08-07T23:03:59.124Z,74.70
2022-08-07T23:06:51.664Z,75.60
2022-08-07T23:10:06.455Z,75.10
2022-08-07T23:12:53.779Z,75.40
2022-08-07T23:16:07.211Z,76.30
2022-08-07T23:19:47.998Z,76.60
2022-08-07T23:22:32.574Z,76.70
2022-08-07T23:25:19.132Z,77.10
2022-08-07T23:28:22.618Z,77.50
2022-08-07T23:31:07.123Z,77.80
2022-08-07T23:34:21.947Z,78.80
2022-08-07T23:37:18.959Z,77.90
2022-08-07T23:40:12.888Z,79.00
2022-08-07T23:43:03.161Z,79.60
2022-08-07T23:46:02.605Z,80.10
2022-08-07T23:49:19.738Z,80.60
2022-08-07T23:53:01.714Z,80.90
2022-08-07T23:54:57.120Z,80.90
2022-08-07T23:57:35.996Z,81.50
